Wetterdaten: Woche 24.08.15 - 30.08.15 (KW35)
Datum Zeit Temp. A. Feuchte A. Luftdruck Regen Wind Richtung Sonnenschein ET UV Solar Taupunkt Windchill Windben
24.08.2015 00:00 17,3 C 82 % 1008,4 hPa 0,6 l/m 0,7 km/h (0 Bft) N 0,00 h 0,025 mm 0,0 UV-I 0 W/m 14,1 C 17,3 C 2,6 km/h (1 Bft)
24.08.2015 01:00 15,8 C 91 % 1008,2 hPa 0,4 l/m 0,0 km/h (0 Bft) N 0,00 h 0,025 mm 0,0 UV-I 0 W/m 14,4 C 15,8 C 0,0 km/h (0 Bft)
24.08.2015 02:00 15,5 C 93 % 1007,9 hPa 0,2 l/m 0,0 km/h (0 Bft) N 0,00 h 0,000 mm 0,0 UV-I 0 W/m 14,5 C 15,5 C 0,1 km/h (0 Bft)
24.08.2015 03:00 15,3 C 95 % 1007,8 hPa 0,2 l/m 0,0 km/h (0 Bft) N 0,00 h 0,000 mm 0,0 UV-I 0 W/m 14,5 C 15,3 C 0,1 km/h (0 Bft)
24.08.2015 04:00 15,4 C 94 % 1007,7 hPa 0,2 l/m 0,0 km/h (0 Bft) N 0,00 h 0,000 mm 0,0 UV-I 0 W/m 14,5 C 15,4 C 0,9 km/h (0 Bft)
24.08.2015 05:00 15,3 C 95 % 1007,3 hPa 0,0 l/m 0,0 km/h (0 Bft) N 0,00 h 0,000 mm 0,0 UV-I 0 W/m 14,5 C 15,3 C 0,4 km/h (0 Bft)
24.08.2015 06:00 15,1 C 95 % 1007,4 hPa 0,0 l/m 0,0 km/h (0 Bft) N 0,00 h 0,000 mm 0,0 UV-I 11 W/m 14,3 C 15,1 C 0,0 km/h (0 Bft)
24.08.2015 07:00 15,2 C 96 % 1007,6 hPa 0,0 l/m 0,0 km/h (0 Bft) N 0,05 h 0,000 mm 0,0 UV-I 36 W/m 14,5 C 15,2 C 0,1 km/h (0 Bft)
24.08.2015 08:00 16,1 C 94 % 1007,5 hPa 0,0 l/m 0,1 km/h (0 Bft) N 0,92 h 0,025 mm 0,8 UV-I 116 W/m 15,2 C 16,1 C 0,6 km/h (0 Bft)
24.08.2015 09:00 18,3 C 86 % 1007,2 hPa 0,0 l/m 1,0 km/h (0 Bft) N 1,00 h 0,051 mm 1,7 UV-I 353 W/m 15,8 C 18,3 C 2,8 km/h (1 Bft)
24.08.2015 10:00 20,7 C 75 % 1006,8 hPa 0,0 l/m 2,9 km/h (1 Bft) SO 1,00 h 0,203 mm 3,2 UV-I 586 W/m 16,1 C 20,7 C 6,6 km/h (2 Bft)
24.08.2015 11:00 22,4 C 69 % 1006,7 hPa 0,0 l/m 5,3 km/h (1 Bft) SO 1,00 h 0,356 mm 4,2 UV-I 674 W/m 16,4 C 22,1 C 9,9 km/h (2 Bft)
24.08.2015 12:00 23,9 C 65 % 1006,3 hPa 0,0 l/m 5,5 km/h (2 Bft) O-SO 1,00 h 0,432 mm 5,0 UV-I 775 W/m 17,0 C 23,7 C 11,0 km/h (2 Bft)
24.08.2015 13:00 25,3 C 60 % 1006,0 hPa 0,0 l/m 4,4 km/h (1 Bft) O-SO 1,00 h 0,508 mm 4,7 UV-I 668 W/m 16,9 C 25,2 C 10,4 km/h (2 Bft)
24.08.2015 14:00 25,8 C 53 % 1005,7 hPa 0,0 l/m 4,3 km/h (1 Bft) SO 1,00 h 0,432 mm 3,6 UV-I 517 W/m 15,5 C 25,7 C 9,7 km/h (2 Bft)
24.08.2015 15:00 26,3 C 53 % 1005,5 hPa 0,0 l/m 5,0 km/h (1 Bft) SO 1,00 h 0,356 mm 3,4 UV-I 594 W/m 15,8 C 26,1 C 11,6 km/h (2 Bft)
24.08.2015 16:00 26,1 C 53 % 1005,3 hPa 0,0 l/m 3,2 km/h (1 Bft) SO 1,00 h 0,406 mm 1,9 UV-I 318 W/m 15,6 C 26,0 C 8,7 km/h (2 Bft)
24.08.2015 17:00 25,9 C 52 % 1005,1 hPa 0,0 l/m 1,8 km/h (1 Bft) SO 1,00 h 0,229 mm 1,0 UV-I 191 W/m 15,2 C 25,9 C 6,3 km/h (2 Bft)
24.08.2015 18:00 25,2 C 54 % 1004,8 hPa 0,0 l/m 0,5 km/h (0 Bft) N 0,73 h 0,152 mm 0,5 UV-I 59 W/m 15,2 C 25,2 C 2,3 km/h (1 Bft)
24.08.2015 19:00 24,0 C 57 % 1004,7 hPa 0,0 l/m 0,6 km/h (0 Bft) N 0,00 h 0,051 mm 0,0 UV-I 16 W/m 15,0 C 24,0 C 2,6 km/h (1 Bft)
24.08.2015 20:00 22,8 C 62 % 1005,0 hPa 0,0 l/m 0,0 km/h (0 Bft) N 0,00 h 0,025 mm 0,0 UV-I 0 W/m 15,1 C 22,8 C 0,1 km/h (0 Bft)
24.08.2015 21:00 21,7 C 69 % 1006,4 hPa 0,6 l/m 4,5 km/h (1 Bft) SW 0,00 h 0,000 mm 0,0 UV-I 0 W/m 15,6 C 21,5 C 9,7 km/h (2 Bft)
24.08.2015 22:00 17,5 C 92 % 1008,2 hPa 6,4 l/m 4,5 km/h (1 Bft) W 0,00 h 0,051 mm 0,0 UV-I 0 W/m 16,1 C 17,2 C 10,7 km/h (2 Bft)
24.08.2015 23:00 16,3 C 95 % 1009,5 hPa 3,2 l/m 2,2 km/h (1 Bft) N 0,00 h 0,000 mm 0,0 UV-I 0 W/m 15,5 C 16,3 C 6,3 km/h (2 Bft)
25.08.2015 00:00 15,0 C 93 % 1009,7 hPa 0,2 l/m 1,2 km/h (1 Bft) N 0,00 h 0,000 mm 0,0 UV-I 0 W/m 13,9 C 15,0 C 3,4 km/h (1 Bft)
25.08.2015 01:00 14,7 C 93 % 1010,0 hPa 0,0 l/m 0,8 km/h (0 Bft) N 0,00 h 0,000 mm 0,0 UV-I 0 W/m 13,7 C 14,7 C 3,1 km/h (1 Bft)
25.08.2015 02:00 14,6 C 93 % 1010,6 hPa 0,0 l/m 2,5 km/h (1 Bft) SW 0,00 h 0,000 mm 0,0 UV-I 0 W/m 13,6 C 14,5 C 7,8 km/h (2 Bft)
25.08.2015 03:00 14,3 C 93 % 1011,3 hPa 0,0 l/m 6,2 km/h (2 Bft) SW 0,00 h 0,000 mm 0,0 UV-I 0 W/m 13,2 C 13,7 C 14,3 km/h (3 Bft)
25.08.2015 04:00 14,0 C 93 % 1011,9 hPa 0,0 l/m 4,5 km/h (1 Bft) S 0,00 h 0,000 mm 0,0 UV-I 0 W/m 12,9 C 13,7 C 10,1 km/h (2 Bft)
25.08.2015 05:00 13,8 C 93 % 1012,5 hPa 0,0 l/m 1,2 km/h (1 Bft) N 0,00 h 0,000 mm 0,0 UV-I 0 W/m 12,8 C 13,8 C 3,5 km/h (1 Bft)
25.08.2015 06:00 13,7 C 94 % 1012,6 hPa 0,2 l/m 3,0 km/h (1 Bft) N 0,00 h 0,000 mm 0,0 UV-I 13 W/m 12,7 C 13,4 C 6,7 km/h (2 Bft)
25.08.2015 07:00 13,7 C 93 % 1013,7 hPa 0,0 l/m 7,1 km/h (2 Bft) S 0,00 h 0,000 mm 0,0 UV-I 14 W/m 12,6 C 12,8 C 14,3 km/h (3 Bft)
25.08.2015 08:00 13,9 C 90 % 1014,5 hPa 0,0 l/m 5,0 km/h (1 Bft) SW 0,77 h 0,000 mm 0,5 UV-I 61 W/m 12,3 C 13,5 C 11,8 km/h (2 Bft)
25.08.2015 09:00 14,3 C 88 % 1015,4 hPa 0,0 l/m 4,4 km/h (1 Bft) W-SW 0,78 h 0,025 mm 0,8 UV-I 100 W/m 12,4 C 13,9 C 10,5 km/h (2 Bft)
25.08.2015 10:00 14,6 C 82 % 1015,8 hPa 0,0 l/m 8,8 km/h (2 Bft) W-SW 0,92 h 0,051 mm 1,2 UV-I 146 W/m 11,6 C 13,1 C 18,3 km/h (3 Bft)
25.08.2015 11:00 14,9 C 80 % 1016,4 hPa 0,0 l/m 4,2 km/h (1 Bft) W-SW 1,00 h 0,102 mm 1,6 UV-I 190 W/m 11,4 C 14,5 C 10,6 km/h (2 Bft)
25.08.2015 12:00 15,2 C 77 % 1016,7 hPa 0,0 l/m 4,8 km/h (1 Bft) W-SW 1,00 h 0,102 mm 1,5 UV-I 172 W/m 11,1 C 14,9 C 12,4 km/h (2 Bft)
25.08.2015 13:00 16,8 C 72 % 1016,9 hPa 0,0 l/m 4,1 km/h (1 Bft) W-SW 1,00 h 0,102 mm 2,7 UV-I 319 W/m 11,6 C 16,6 C 10,2 km/h (2 Bft)
25.08.2015 14:00 17,6 C 67 % 1017,0 hPa 0,0 l/m 5,0 km/h (1 Bft) W-SW 1,00 h 0,203 mm 2,1 UV-I 262 W/m 11,3 C 17,2 C 11,6 km/h (2 Bft)
25.08.2015 15:00 17,9 C 65 % 1017,2 hPa 0,0 l/m 2,9 km/h (1 Bft) W 1,00 h 0,178 mm 1,5 UV-I 197 W/m 11,2 C 17,7 C 7,0 km/h (2 Bft)
25.08.2015 16:00 18,3 C 64 % 1017,3 hPa 0,0 l/m 1,7 km/h (1 Bft) N 1,00 h 0,127 mm 1,4 UV-I 244 W/m 11,3 C 18,2 C 4,4 km/h (1 Bft)
25.08.2015 17:00 18,5 C 62 % 1017,4 hPa 0,0 l/m 2,4 km/h (1 Bft) W 1,00 h 0,152 mm 1,0 UV-I 202 W/m 11,1 C 18,5 C 5,9 km/h (2 Bft)
25.08.2015 18:00 17,9 C 65 % 1017,4 hPa 0,0 l/m 0,6 km/h (0 Bft) N 1,00 h 0,127 mm 0,6 UV-I 95 W/m 11,1 C 17,9 C 2,0 km/h (1 Bft)
25.08.2015 19:00 16,9 C 70 % 1017,7 hPa 0,0 l/m 0,0 km/h (0 Bft) N 0,05 h 0,051 mm 0,0 UV-I 34 W/m 11,3 C 16,9 C 0,0 km/h (0 Bft)
25.08.2015 20:00 15,2 C 80 % 1018,1 hPa 0,0 l/m 0,0 km/h (0 Bft) N 0,00 h 0,025 mm 0,0 UV-I 9 W/m 11,8 C 15,2 C 0,0 km/h (0 Bft)
25.08.2015 21:00 12,9 C 90 % 1018,5 hPa 0,0 l/m 0,0 km/h (0 Bft) N 0,00 h 0,000 mm 0,0 UV-I 0 W/m 11,3 C 12,9 C 0,0 km/h (0 Bft)
25.08.2015 22:00 11,7 C 92 % 1018,7 hPa 0,0 l/m 0,0 km/h (0 Bft) N 0,00 h 0,000 mm 0,0 UV-I 0 W/m 10,5 C 11,7 C 0,0 km/h (0 Bft)
25.08.2015 23:00 10,9 C 93 % 1019,2 hPa 0,0 l/m 0,0 km/h (0 Bft) N 0,00 h 0,000 mm 0,0 UV-I 0 W/m 9,8 C 10,9 C 0,0 km/h (0 Bft)
26.08.2015 00:00 9,8 C 94 % 1019,2 hPa 0,0 l/m 0,0 km/h (0 Bft) N 0,00 h 0,000 mm 0,0 UV-I 0 W/m 8,9 C 9,8 C 0,0 km/h (0 Bft)
26.08.2015 01:00 9,2 C 95 % 1019,4 hPa 0,0 l/m 0,0 km/h (0 Bft) N 0,00 h 0,000 mm 0,0 UV-I 0 W/m 8,4 C 9,2 C 0,0 km/h (0 Bft)
26.08.2015 02:00 8,5 C 95 % 1019,6 hPa 0,0 l/m 0,0 km/h (0 Bft) N 0,00 h 0,000 mm 0,0 UV-I 0 W/m 7,8 C 8,5 C 0,0 km/h (0 Bft)
26.08.2015 03:00 8,1 C 96 % 1019,7 hPa 0,0 l/m 0,0 km/h (0 Bft) N 0,00 h 0,000 mm 0,0 UV-I 0 W/m 7,5 C 8,1 C 0,0 km/h (0 Bft)
26.08.2015 04:00 7,8 C 96 % 1019,6 hPa 0,0 l/m 0,0 km/h (0 Bft) N 0,00 h 0,000 mm 0,0 UV-I 0 W/m 7,1 C 7,8 C 0,0 km/h (0 Bft)
26.08.2015 05:00 7,4 C 96 % 1019,7 hPa 0,0 l/m 0,0 km/h (0 Bft) N 0,00 h 0,000 mm 0,0 UV-I 0 W/m 6,8 C 7,4 C 0,0 km/h (0 Bft)
26.08.2015 06:00 7,2 C 96 % 1020,0 hPa 0,0 l/m 0,0 km/h (0 Bft) N 0,00 h 0,000 mm 0,0 UV-I 10 W/m 6,6 C 7,2 C 0,0 km/h (0 Bft)
26.08.2015 07:00 8,2 C 96 % 1020,5 hPa 0,0 l/m 0,0 km/h (0 Bft) N 0,52 h 0,000 mm 0,5 UV-I 66 W/m 7,5 C 8,2 C 0,0 km/h (0 Bft)
26.08.2015 08:00 12,1 C 87 % 1020,4 hPa 0,0 l/m 0,0 km/h (0 Bft) N 1,00 h 0,025 mm 0,8 UV-I 269 W/m 10,0 C 12,1 C 0,0 km/h (0 Bft)
26.08.2015 09:00 16,1 C 73 % 1020,5 hPa 0,0 l/m 0,9 km/h (0 Bft) N 1,00 h 0,127 mm 1,8 UV-I 450 W/m 11,3 C 16,1 C 3,0 km/h (1 Bft)
26.08.2015 10:00 19,4 C 58 % 1020,3 hPa 0,0 l/m 3,1 km/h (1 Bft) W-SW 1,00 h 0,254 mm 3,1 UV-I 582 W/m 10,9 C 19,4 C 6,6 km/h (2 Bft)
26.08.2015 11:00 20,6 C 51 % 1020,1 hPa 0,0 l/m 5,9 km/h (2 Bft) S 1,00 h 0,356 mm 4,3 UV-I 688 W/m 10,1 C 20,3 C 10,7 km/h (2 Bft)
26.08.2015 12:00 21,8 C 45 % 1019,7 hPa 0,0 l/m 6,3 km/h (2 Bft) S 1,00 h 0,432 mm 4,8 UV-I 753 W/m 9,4 C 21,4 C 12,5 km/h (2 Bft)
26.08.2015 13:00 22,9 C 42 % 1019,1 hPa 0,0 l/m 6,0 km/h (2 Bft) S 1,00 h 0,508 mm 5,2 UV-I 768 W/m 9,2 C 22,6 C 11,7 km/h (2 Bft)
26.08.2015 14:00 23,7 C 39 % 1018,5 hPa 0,0 l/m 4,6 km/h (1 Bft) S 1,00 h 0,508 mm 4,6 UV-I 736 W/m 9,0 C 23,6 C 9,6 km/h (2 Bft)
26.08.2015 15:00 24,1 C 42 % 1017,7 hPa 0,0 l/m 4,1 km/h (1 Bft) S 1,00 h 0,508 mm 3,5 UV-I 645 W/m 10,2 C 24,0 C 8,9 km/h (2 Bft)
26.08.2015 16:00 24,3 C 40 % 1017,0 hPa 0,0 l/m 4,2 km/h (1 Bft) S-SO 1,00 h 0,432 mm 2,3 UV-I 510 W/m 10,0 C 24,2 C 8,4 km/h (2 Bft)
26.08.2015 17:00 24,0 C 37 % 1016,6 hPa 0,0 l/m 4,2 km/h (1 Bft) S-SO 1,00 h 0,356 mm 1,2 UV-I 308 W/m 8,4 C 23,9 C 8,7 km/h (2 Bft)
26.08.2015 18:00 23,3 C 40 % 1016,0 hPa 0,0 l/m 1,5 km/h (1 Bft) S 1,00 h 0,229 mm 0,6 UV-I 84 W/m 8,7 C 23,3 C 4,4 km/h (1 Bft)
26.08.2015 19:00 22,2 C 43 % 1015,6 hPa 0,0 l/m 0,3 km/h (0 Bft) N 0,05 h 0,076 mm 0,0 UV-I 24 W/m 9,1 C 22,2 C 1,0 km/h (0 Bft)
26.08.2015 20:00 18,6 C 61 % 1015,3 hPa 0,0 l/m 0,0 km/h (0 Bft) N 0,00 h 0,025 mm 0,0 UV-I 0 W/m 11,0 C 18,6 C 0,4 km/h (0 Bft)
26.08.2015 21:00 16,5 C 73 % 1015,4 hPa 0,0 l/m 0,0 km/h (0 Bft) N 0,00 h 0,000 mm 0,0 UV-I 0 W/m 11,7 C 16,5 C 0,2 km/h (0 Bft)
26.08.2015 22:00 14,3 C 85 % 1015,3 hPa 0,0 l/m 0,0 km/h (0 Bft) N 0,00 h 0,025 mm 0,0 UV-I 0 W/m 11,7 C 14,3 C 0,0 km/h (0 Bft)
26.08.2015 23:00 12,8 C 89 % 1015,1 hPa 0,0 l/m 0,0 km/h (0 Bft) N 0,00 h 0,000 mm 0,0 UV-I 0 W/m 11,0 C 12,8 C 0,0 km/h (0 Bft)
27.08.2015 00:00 11,6 C 91 % 1014,9 hPa 0,0 l/m 0,0 km/h (0 Bft) N 0,00 h 0,000 mm 0,0 UV-I 0 W/m 10,3 C 11,6 C 0,0 km/h (0 Bft)
27.08.2015 01:00 10,8 C 92 % 1014,9 hPa 0,0 l/m 0,0 km/h (0 Bft) N 0,00 h 0,000 mm 0,0 UV-I 0 W/m 9,6 C 10,8 C 0,0 km/h (0 Bft)
27.08.2015 02:00 10,1 C 93 % 1014,8 hPa 0,0 l/m 0,0 km/h (0 Bft) N 0,00 h 0,000 mm 0,0 UV-I 0 W/m 9,0 C 10,1 C 0,0 km/h (0 Bft)
27.08.2015 03:00 9,7 C 94 % 1014,7 hPa 0,0 l/m 0,0 km/h (0 Bft) N 0,00 h 0,000 mm 0,0 UV-I 0 W/m 8,7 C 9,7 C 0,0 km/h (0 Bft)
27.08.2015 04:00 9,2 C 94 % 1014,4 hPa 0,0 l/m 0,0 km/h (0 Bft) N 0,00 h 0,000 mm 0,0 UV-I 0 W/m 8,3 C 9,2 C 0,0 km/h (0 Bft)
27.08.2015 05:00 9,2 C 94 % 1014,4 hPa 0,0 l/m 0,6 km/h (0 Bft) N 0,00 h 0,000 mm 0,0 UV-I 0 W/m 8,2 C 9,2 C 1,1 km/h (1 Bft)
27.08.2015 06:00 8,9 C 94 % 1014,6 hPa 0,0 l/m 0,0 km/h (0 Bft) N 0,00 h 0,000 mm 0,0 UV-I 17 W/m 8,0 C 8,9 C 0,0 km/h (0 Bft)
27.08.2015 07:00 10,2 C 93 % 1014,8 hPa 0,0 l/m 0,0 km/h (0 Bft) N 0,73 h 0,000 mm 0,0 UV-I 74 W/m 9,1 C 10,2 C 0,0 km/h (0 Bft)
27.08.2015 08:00 13,2 C 88 % 1014,8 hPa 0,0 l/m 0,0 km/h (0 Bft) N 1,00 h 0,025 mm 0,7 UV-I 166 W/m 11,2 C 13,2 C 0,0 km/h (0 Bft)
27.08.2015 09:00 17,9 C 72 % 1014,6 hPa 0,0 l/m 0,2 km/h (0 Bft) N 1,00 h 0,076 mm 1,7 UV-I 411 W/m 12,6 C 17,9 C 0,5 km/h (0 Bft)
27.08.2015 10:00 21,8 C 62 % 1014,4 hPa 0,0 l/m 1,3 km/h (1 Bft) N 1,00 h 0,229 mm 2,7 UV-I 485 W/m 14,1 C 21,8 C 3,7 km/h (1 Bft)
27.08.2015 11:00 23,8 C 56 % 1014,4 hPa 0,0 l/m 3,2 km/h (1 Bft) S 1,00 h 0,305 mm 3,6 UV-I 537 W/m 14,6 C 23,8 C 6,8 km/h (2 Bft)
27.08.2015 12:00 24,9 C 52 % 1013,9 hPa 0,0 l/m 1,9 km/h (1 Bft) S 1,00 h 0,356 mm 4,2 UV-I 604 W/m 14,4 C 24,9 C 4,9 km/h (1 Bft)
27.08.2015 13:00 26,4 C 46 % 1013,2 hPa 0,0 l/m 4,1 km/h (1 Bft) S 1,00 h 0,381 mm 5,2 UV-I 760 W/m 13,8 C 26,4 C 9,2 km/h (2 Bft)
27.08.2015 14:00 26,9 C 43 % 1013,0 hPa 0,0 l/m 8,0 km/h (2 Bft) S 1,00 h 0,533 mm 4,0 UV-I 612 W/m 13,4 C 26,6 C 14,1 km/h (3 Bft)
27.08.2015 15:00 27,6 C 40 % 1012,7 hPa 0,0 l/m 7,3 km/h (2 Bft) S 1,00 h 0,457 mm 3,1 UV-I 500 W/m 12,8 C 27,3 C 12,1 km/h (2 Bft)
27.08.2015 16:00 27,7 C 38 % 1012,0 hPa 0,0 l/m 7,9 km/h (2 Bft) S-SO 1,00 h 0,406 mm 1,9 UV-I 362 W/m 11,9 C 27,4 C 12,8 km/h (3 Bft)
27.08.2015 17:00 27,4 C 39 % 1011,7 hPa 0,0 l/m 6,5 km/h (2 Bft) S 1,00 h 0,330 mm 1,1 UV-I 259 W/m 12,1 C 27,2 C 11,5 km/h (2 Bft)
27.08.2015 18:00 26,9 C 42 % 1011,4 hPa 0,0 l/m 6,4 km/h (2 Bft) S-SO 0,52 h 0,229 mm 0,6 UV-I 60 W/m 12,9 C 26,7 C 11,1 km/h (2 Bft)
27.08.2015 19:00 25,8 C 45 % 1011,1 hPa 0,0 l/m 3,0 km/h (1 Bft) S-SO 0,00 h 0,102 mm 0,0 UV-I 16 W/m 13,0 C 25,8 C 6,8 km/h (2 Bft)
27.08.2015 20:00 23,2 C 55 % 1011,0 hPa 0,0 l/m 0,2 km/h (0 Bft) N 0,00 h 0,051 mm 0,0 UV-I 0 W/m 13,7 C 23,2 C 1,5 km/h (1 Bft)
27.08.2015 21:00 20,6 C 66 % 1011,0 hPa 0,0 l/m 0,0 km/h (0 Bft) N 0,00 h 0,025 mm 0,0 UV-I 0 W/m 13,9 C 20,6 C 0,1 km/h (0 Bft)
27.08.2015 22:00 20,6 C 63 % 1010,9 hPa 0,0 l/m 0,7 km/h (0 Bft) N 0,00 h 0,025 mm 0,0 UV-I 0 W/m 13,2 C 20,6 C 1,9 km/h (1 Bft)
27.08.2015 23:00 21,0 C 59 % 1010,8 hPa 0,0 l/m 0,8 km/h (0 Bft) N 0,00 h 0,025 mm 0,0 UV-I 0 W/m 12,5 C 21,0 C 2,5 km/h (1 Bft)
28.08.2015 00:00 19,0 C 67 % 1010,8 hPa 0,0 l/m 0,3 km/h (0 Bft) N 0,00 h 0,051 mm 0,0 UV-I 0 W/m 12,8 C 19,0 C 1,3 km/h (1 Bft)
28.08.2015 01:00 17,4 C 79 % 1010,8 hPa 0,0 l/m 0,0 km/h (0 Bft) N 0,00 h 0,025 mm 0,0 UV-I 0 W/m 13,8 C 17,4 C 0,2 km/h (0 Bft)
28.08.2015 02:00 19,4 C 69 % 1010,7 hPa 0,0 l/m 1,6 km/h (1 Bft) S-SO 0,00 h 0,025 mm 0,0 UV-I 0 W/m 13,3 C 19,4 C 4,5 km/h (1 Bft)
28.08.2015 03:00 21,0 C 60 % 1011,1 hPa 0,0 l/m 1,5 km/h (1 Bft) S-SW 0,00 h 0,025 mm 0,0 UV-I 0 W/m 12,9 C 21,0 C 5,1 km/h (1 Bft)
28.08.2015 04:00 19,2 C 69 % 1012,4 hPa 0,0 l/m 0,6 km/h (0 Bft) W 0,00 h 0,000 mm 0,0 UV-I 0 W/m 13,4 C 19,2 C 2,7 km/h (1 Bft)
28.08.2015 05:00 19,3 C 75 % 1013,5 hPa 0,0 l/m 1,5 km/h (1 Bft) N 0,00 h 0,025 mm 0,0 UV-I 0 W/m 14,8 C 19,2 C 3,8 km/h (1 Bft)
28.08.2015 06:00 19,2 C 81 % 1014,0 hPa 0,0 l/m 0,4 km/h (0 Bft) N 0,00 h 0,025 mm 0,0 UV-I 6 W/m 15,7 C 19,2 C 1,7 km/h (1 Bft)
28.08.2015 07:00 19,1 C 83 % 1014,3 hPa 0,0 l/m 0,7 km/h (0 Bft) N 0,00 h 0,000 mm 0,0 UV-I 21 W/m 16,0 C 19,1 C 2,5 km/h (1 Bft)
28.08.2015 08:00 19,0 C 84 % 1014,8 hPa 0,0 l/m 0,9 km/h (0 Bft) S 0,00 h 0,025 mm 0,0 UV-I 22 W/m 16,3 C 19,0 C 3,5 km/h (1 Bft)
28.08.2015 09:00 19,1 C 86 % 1015,2 hPa 0,0 l/m 1,9 km/h (1 Bft) S 0,90 h 0,025 mm 0,9 UV-I 117 W/m 16,8 C 19,1 C 6,5 km/h (2 Bft)
28.08.2015 10:00 20,5 C 80 % 1015,6 hPa 0,0 l/m 2,7 km/h (1 Bft) SW 1,00 h 0,076 mm 1,4 UV-I 164 W/m 17,0 C 20,4 C 7,2 km/h (2 Bft)
28.08.2015 11:00 21,9 C 75 % 1016,2 hPa 0,0 l/m 6,9 km/h (2 Bft) W-SW 1,00 h 0,102 mm 3,1 UV-I 365 W/m 17,4 C 21,5 C 13,5 km/h (3 Bft)
28.08.2015 12:00 24,2 C 68 % 1016,3 hPa 0,0 l/m 8,3 km/h (2 Bft) W-SW 1,00 h 0,279 mm 4,5 UV-I 503 W/m 17,8 C 23,6 C 16,2 km/h (3 Bft)
28.08.2015 13:00 24,1 C 69 % 1016,7 hPa 0,0 l/m 5,3 km/h (1 Bft) W-SW 1,00 h 0,381 mm 3,3 UV-I 373 W/m 17,9 C 23,9 C 11,2 km/h (2 Bft)
28.08.2015 14:00 23,7 C 71 % 1016,7 hPa 0,0 l/m 2,5 km/h (1 Bft) W 1,00 h 0,254 mm 1,8 UV-I 192 W/m 18,1 C 23,6 C 5,7 km/h (2 Bft)
28.08.2015 15:00 21,3 C 85 % 1017,4 hPa 0,8 l/m 1,7 km/h (1 Bft) W 0,60 h 0,127 mm 0,7 UV-I 55 W/m 18,6 C 21,3 C 5,0 km/h (1 Bft)
28.08.2015 16:00 20,5 C 90 % 1017,7 hPa 0,0 l/m 0,2 km/h (0 Bft) N 0,97 h 0,051 mm 1,1 UV-I 127 W/m 18,9 C 20,5 C 0,5 km/h (0 Bft)
28.08.2015 17:00 21,3 C 85 % 1017,8 hPa 0,0 l/m 2,7 km/h (1 Bft) W 1,00 h 0,076 mm 0,7 UV-I 101 W/m 18,7 C 21,2 C 7,0 km/h (2 Bft)
28.08.2015 18:00 21,4 C 83 % 1017,9 hPa 0,0 l/m 0,5 km/h (0 Bft) N 1,00 h 0,076 mm 0,6 UV-I 73 W/m 18,5 C 21,4 C 1,8 km/h (1 Bft)
28.08.2015 19:00 21,1 C 83 % 1018,1 hPa 0,0 l/m 0,5 km/h (0 Bft) N 0,08 h 0,051 mm 0,0 UV-I 26 W/m 18,1 C 21,1 C 2,5 km/h (1 Bft)
28.08.2015 20:00 20,6 C 83 % 1018,8 hPa 0,0 l/m 0,0 km/h (0 Bft) N 0,00 h 0,025 mm 0,0 UV-I 0 W/m 17,5 C 20,6 C 0,2 km/h (0 Bft)
28.08.2015 21:00 20,2 C 84 % 1019,4 hPa 0,0 l/m 0,0 km/h (0 Bft) N 0,00 h 0,000 mm 0,0 UV-I 0 W/m 17,3 C 20,2 C 0,1 km/h (0 Bft)
28.08.2015 22:00 19,8 C 85 % 1020,0 hPa 0,0 l/m 0,0 km/h (0 Bft) N 0,00 h 0,025 mm 0,0 UV-I 0 W/m 17,3 C 19,8 C 0,2 km/h (0 Bft)
28.08.2015 23:00 19,3 C 88 % 1020,5 hPa 0,0 l/m 0,0 km/h (0 Bft) N 0,00 h 0,025 mm 0,0 UV-I 0 W/m 17,3 C 19,3 C 0,0 km/h (0 Bft)
29.08.2015 00:00 19,1 C 88 % 1020,5 hPa 0,0 l/m 0,0 km/h (0 Bft) N 0,00 h 0,000 mm 0,0 UV-I 0 W/m 17,1 C 19,1 C 0,1 km/h (0 Bft)
29.08.2015 01:00 18,8 C 89 % 1020,8 hPa 0,0 l/m 0,0 km/h (0 Bft) N 0,00 h 0,000 mm 0,0 UV-I 0 W/m 17,0 C 18,8 C 0,0 km/h (0 Bft)
29.08.2015 02:00 18,4 C 91 % 1021,0 hPa 0,0 l/m 0,0 km/h (0 Bft) N 0,00 h 0,000 mm 0,0 UV-I 0 W/m 16,9 C 18,4 C 0,0 km/h (0 Bft)
29.08.2015 03:00 18,1 C 92 % 1020,9 hPa 0,0 l/m 0,0 km/h (0 Bft) N 0,00 h 0,000 mm 0,0 UV-I 0 W/m 16,9 C 18,1 C 0,0 km/h (0 Bft)
29.08.2015 04:00 17,9 C 94 % 1021,1 hPa 0,0 l/m 0,0 km/h (0 Bft) N 0,00 h 0,000 mm 0,0 UV-I 0 W/m 16,8 C 17,9 C 0,0 km/h (0 Bft)
29.08.2015 05:00 17,6 C 95 % 1021,4 hPa 0,0 l/m 0,0 km/h (0 Bft) N 0,00 h 0,000 mm 0,0 UV-I 0 W/m 16,7 C 17,6 C 0,0 km/h (0 Bft)
29.08.2015 06:00 17,5 C 95 % 1021,7 hPa 0,0 l/m 0,0 km/h (0 Bft) N 0,00 h 0,000 mm 0,0 UV-I 12 W/m 16,7 C 17,5 C 0,2 km/h (0 Bft)
29.08.2015 07:00 17,8 C 94 % 1022,0 hPa 0,0 l/m 0,1 km/h (0 Bft) N 0,58 h 0,000 mm 0,5 UV-I 56 W/m 16,7 C 17,8 C 0,5 km/h (0 Bft)
29.08.2015 08:00 18,8 C 91 % 1022,3 hPa 0,0 l/m 0,1 km/h (0 Bft) N 1,00 h 0,025 mm 0,8 UV-I 123 W/m 17,2 C 18,8 C 0,3 km/h (0 Bft)
29.08.2015 09:00 20,2 C 86 % 1022,7 hPa 0,0 l/m 0,5 km/h (0 Bft) N 1,00 h 0,077 mm 1,8 UV-I 316 W/m 17,9 C 20,2 C 1,2 km/h (1 Bft)
29.08.2015 10:00 23,0 C 75 % 1022,7 hPa 0,0 l/m 0,2 km/h (0 Bft) N 1,00 h 0,178 mm 3,3 UV-I 562 W/m 18,3 C 23,0 C 0,9 km/h (0 Bft)
29.08.2015 11:00 25,1 C 66 % 1022,6 hPa 0,0 l/m 0,6 km/h (0 Bft) N 1,00 h 0,330 mm 4,4 UV-I 656 W/m 18,2 C 25,1 C 1,6 km/h (1 Bft)
29.08.2015 12:00 26,9 C 60 % 1022,2 hPa 0,0 l/m 0,6 km/h (0 Bft) N 1,00 h 0,406 mm 5,1 UV-I 734 W/m 18,5 C 26,9 C 2,7 km/h (1 Bft)
29.08.2015 13:00 28,3 C 54 % 1021,7 hPa 0,0 l/m 3,1 km/h (1 Bft) W-SW 1,00 h 0,483 mm 5,5 UV-I 751 W/m 18,1 C 28,3 C 7,2 km/h (2 Bft)
29.08.2015 14:00 29,6 C 50 % 1021,2 hPa 0,0 l/m 3,0 km/h (1 Bft) W-SW 1,00 h 0,508 mm 4,9 UV-I 728 W/m 17,9 C 29,6 C 6,9 km/h (2 Bft)
29.08.2015 15:00 30,3 C 49 % 1020,6 hPa 0,0 l/m 1,4 km/h (1 Bft) N 1,00 h 0,508 mm 3,7 UV-I 648 W/m 18,2 C 30,3 C 3,8 km/h (1 Bft)
29.08.2015 16:00 29,8 C 47 % 1020,2 hPa 0,0 l/m 1,9 km/h (1 Bft) N 1,00 h 0,432 mm 2,4 UV-I 528 W/m 17,2 C 29,8 C 4,4 km/h (1 Bft)
29.08.2015 17:00 29,4 C 46 % 1019,6 hPa 0,0 l/m 1,3 km/h (1 Bft) N 0,95 h 0,381 mm 1,2 UV-I 352 W/m 16,7 C 29,4 C 3,2 km/h (1 Bft)
29.08.2015 18:00 28,1 C 51 % 1019,2 hPa 0,0 l/m 0,5 km/h (0 Bft) N 0,00 h 0,254 mm 0,0 UV-I 32 W/m 17,0 C 28,1 C 1,3 km/h (1 Bft)
29.08.2015 19:00 26,4 C 58 % 1019,0 hPa 0,0 l/m 0,0 km/h (0 Bft) N 0,00 h 0,025 mm 0,0 UV-I 13 W/m 17,4 C 26,4 C 0,0 km/h (0 Bft)
29.08.2015 20:00 23,8 C 71 % 1019,1 hPa 0,0 l/m 0,0 km/h (0 Bft) N 0,00 h 0,025 mm 0,0 UV-I 0 W/m 18,1 C 23,8 C 0,0 km/h (0 Bft)
29.08.2015 21:00 22,1 C 77 % 1019,4 hPa 0,0 l/m 0,2 km/h (0 Bft) N 0,00 h 0,000 mm 0,0 UV-I 0 W/m 17,9 C 22,1 C 0,8 km/h (0 Bft)
29.08.2015 22:00 22,2 C 76 % 1019,6 hPa 0,0 l/m 0,3 km/h (0 Bft) N 0,00 h 0,025 mm 0,0 UV-I 0 W/m 17,8 C 22,2 C 1,5 km/h (1 Bft)
29.08.2015 23:00 21,8 C 78 % 1019,6 hPa 0,0 l/m 1,6 km/h (1 Bft) O 0,00 h 0,025 mm 0,0 UV-I 0 W/m 17,7 C 21,8 C 5,5 km/h (2 Bft)
30.08.2015 00:00 20,9 C 80 % 1019,5 hPa 0,0 l/m 0,1 km/h (0 Bft) N 0,00 h 0,025 mm 0,0 UV-I 0 W/m 17,4 C 20,9 C 0,6 km/h (0 Bft)
30.08.2015 01:00 19,9 C 83 % 1019,3 hPa 0,0 l/m 0,0 km/h (0 Bft) N 0,00 h 0,025 mm 0,0 UV-I 0 W/m 16,9 C 19,9 C 0,3 km/h (0 Bft)
30.08.2015 02:00 19,0 C 86 % 1018,8 hPa 0,0 l/m 0,0 km/h (0 Bft) N 0,00 h 0,025 mm 0,0 UV-I 0 W/m 16,7 C 19,0 C 0,7 km/h (0 Bft)
30.08.2015 03:00 18,0 C 89 % 1018,5 hPa 0,0 l/m 0,0 km/h (0 Bft) N 0,00 h 0,000 mm 0,0 UV-I 0 W/m 16,1 C 18,0 C 0,1 km/h (0 Bft)
30.08.2015 04:00 17,1 C 91 % 1018,3 hPa 0,0 l/m 0,0 km/h (0 Bft) N 0,00 h 0,000 mm 0,0 UV-I 0 W/m 15,6 C 17,1 C 0,0 km/h (0 Bft)
30.08.2015 05:00 16,5 C 93 % 1018,2 hPa 0,0 l/m 0,0 km/h (0 Bft) N 0,00 h 0,000 mm 0,0 UV-I 0 W/m 15,3 C 16,5 C 0,0 km/h (0 Bft)
30.08.2015 06:00 16,1 C 93 % 1018,2 hPa 0,0 l/m 0,0 km/h (0 Bft) N 0,00 h 0,000 mm 0,0 UV-I 9 W/m 14,9 C 16,1 C 0,0 km/h (0 Bft)
30.08.2015 07:00 16,5 C 93 % 1018,3 hPa 0,0 l/m 0,0 km/h (0 Bft) N 0,58 h 0,000 mm 0,5 UV-I 61 W/m 15,4 C 16,5 C 0,0 km/h (0 Bft)
30.08.2015 08:00 20,2 C 85 % 1018,4 hPa 0,0 l/m 0,0 km/h (0 Bft) N 1,00 h 0,025 mm 0,9 UV-I 267 W/m 17,5 C 20,2 C 0,0 km/h (0 Bft)
30.08.2015 09:00 24,1 C 71 % 1018,4 hPa 0,0 l/m 0,2 km/h (0 Bft) N 1,00 h 0,152 mm 1,7 UV-I 435 W/m 18,5 C 24,1 C 1,0 km/h (0 Bft)
30.08.2015 10:00 26,6 C 63 % 1018,3 hPa 0,0 l/m 0,7 km/h (0 Bft) N 1,00 h 0,279 mm 3,0 UV-I 568 W/m 19,1 C 26,6 C 1,9 km/h (1 Bft)
30.08.2015 11:00 28,5 C 58 % 1018,2 hPa 0,0 l/m 1,2 km/h (1 Bft) S 1,00 h 0,381 mm 4,1 UV-I 671 W/m 19,4 C 28,5 C 3,4 km/h (1 Bft)
30.08.2015 12:00 30,5 C 51 % 1017,8 hPa 0,0 l/m 0,6 km/h (0 Bft) N 1,00 h 0,457 mm 4,6 UV-I 733 W/m 19,1 C 30,5 C 2,4 km/h (1 Bft)
30.08.2015 13:00 32,4 C 44 % 1017,2 hPa 0,0 l/m 0,9 km/h (0 Bft) N 1,00 h 0,508 mm 5,0 UV-I 750 W/m 18,5 C 32,4 C 2,9 km/h (1 Bft)
30.08.2015 14:00 33,3 C 36 % 1016,8 hPa 0,0 l/m 0,7 km/h (0 Bft) N 1,00 h 0,533 mm 4,5 UV-I 720 W/m 15,9 C 33,3 C 2,3 km/h (1 Bft)
30.08.2015 15:00 33,4 C 33 % 1016,3 hPa 0,0 l/m 1,8 km/h (1 Bft) N 1,00 h 0,508 mm 3,4 UV-I 644 W/m 14,7 C 33,4 C 4,2 km/h (1 Bft)
30.08.2015 16:00 33,0 C 33 % 1015,7 hPa 0,0 l/m 1,1 km/h (1 Bft) N 1,00 h 0,483 mm 2,2 UV-I 519 W/m 14,7 C 33,0 C 2,8 km/h (1 Bft)
30.08.2015 17:00 32,2 C 33 % 1015,4 hPa 0,0 l/m 1,4 km/h (1 Bft) N 1,00 h 0,381 mm 1,1 UV-I 360 W/m 13,8 C 32,2 C 2,9 km/h (1 Bft)
30.08.2015 18:00 31,2 C 37 % 1015,2 hPa 0,0 l/m 0,5 km/h (0 Bft) N 0,00 h 0,279 mm 0,0 UV-I 29 W/m 14,6 C 31,2 C 1,1 km/h (1 Bft)
30.08.2015 19:00 28,7 C 47 % 1015,1 hPa 0,0 l/m 0,0 km/h (0 Bft) N 0,00 h 0,051 mm 0,0 UV-I 13 W/m 16,0 C 28,7 C 0,0 km/h (0 Bft)
30.08.2015 20:00 24,6 C 67 % 1015,4 hPa 0,0 l/m 0,0 km/h (0 Bft) N 0,00 h 0,025 mm 0,0 UV-I 0 W/m 17,9 C 24,6 C 0,0 km/h (0 Bft)
30.08.2015 21:00 22,6 C 75 % 1015,6 hPa 0,0 l/m 0,0 km/h (0 Bft) N 0,00 h 0,000 mm 0,0 UV-I 0 W/m 18,0 C 22,6 C 0,0 km/h (0 Bft)
30.08.2015 22:00 21,5 C 79 % 1015,7 hPa 0,0 l/m 0,0 km/h (0 Bft) N 0,00 h 0,025 mm 0,0 UV-I 0 W/m 17,6 C 21,5 C 0,0 km/h (0 Bft)
30.08.2015 23:00 20,2 C 83 % 1015,6 hPa 0,0 l/m 0,0 km/h (0 Bft) N 0,00 h 0,025 mm 0,0 UV-I 0 W/m 17,2 C 20,2 C 0,0 km/h (0 Bft)
Min-Datum _ 26.08.15 30.08.15 24.08.15 - 24.08.15 - - - - - 26.08.15 26.08.15 24.08.15
_ Min-Zeit 06:21 15:01 19:51 - 00:00 - - - - - 06:21 06:21 00:00
Minimum _ 7,1 C 23 % 1004,5 hPa - 0,0 km/h (0 Bft) - - - - - 6,5 C 7,1 C 0,0 km/h (0 Bft)
Max-Datum _ 30.08.15 26.08.15 29.08.15 24.08.15 24.08.15 - 27.08.15 27.08.15 28.08.15 28.08.15 30.08.15 30.08.15 24.08.15
_ Max-Zeit 15:22 07:14 09:28 22:01 21:29 - 07:46 14:00 12:36 12:36 11:41 15:22 21:29
Maximum _ 34,0 C 97 % 1022,8 hPa 6,4 l/m 20,9 km/h
SW (4 Bft)
- 0,07 h 0,533 mm 6,7 UV-I 1062 W/m 20,4 C 34,0 C 32,2 km/h
SW (5 Bft)
Durchschnitt _ 19,7 C 73 % 1015,4 hPa #13,0 l/m 1,6 km/h (1 Bft) N #74:42 h #21,631 mm 2,5 UV-I 315 W/m 14,1 C 19,6 C 3,8 km/h (1 Bft)